createdAt,value
2022-11-26T00:01:44.304Z,12.18
2022-11-26T00:06:44.913Z,11.32
2022-11-26T00:11:43.994Z,10.88
2022-11-26T00:16:46.012Z,11.80
2022-11-26T00:21:44.906Z,11.48
2022-11-26T00:26:43.706Z,12.65
2022-11-26T00:31:42.531Z,12.25
2022-11-26T00:36:45.440Z,12.57
2022-11-26T00:41:47.416Z,10.40
2022-11-26T00:46:46.368Z,11.32
2022-11-26T00:51:47.702Z,12.23
2022-11-26T00:56:47.092Z,10.93
2022-11-26T01:01:45.976Z,11.82
2022-11-26T01:06:47.278Z,12.05
2022-11-26T01:11:50.872Z,11.77
2022-11-26T01:16:53.806Z,11.48
2022-11-26T01:21:54.093Z,13.43
2022-11-26T01:26:53.014Z,12.65
2022-11-26T01:31:51.885Z,13.10
2022-11-26T01:36:50.716Z,12.60
2022-11-26T01:42:00.176Z,12.07
2022-11-26T01:47:00.197Z,11.70
2022-11-26T01:52:06.397Z,13.52
2022-11-26T01:57:11.919Z,12.27
2022-11-26T02:02:11.516Z,12.35
2022-11-26T02:07:10.349Z,11.77
2022-11-26T02:12:10.729Z,11.15
2022-11-26T02:17:16.718Z,13.02
2022-11-26T02:22:30.653Z,11.75
2022-11-26T02:28:02.087Z,11.05
2022-11-26T02:33:06.829Z,11.88
2022-11-26T02:38:10.931Z,15.73
2022-11-26T02:43:09.908Z,17.48
2022-11-26T02:48:15.813Z,17.55
2022-11-26T02:53:16.949Z,20.25
2022-11-26T02:58:16.017Z,18.15
2022-11-26T03:03:24.005Z,19.80
2022-11-26T03:08:23.708Z,18.83
2022-11-26T03:13:22.559Z,19.65
2022-11-26T03:18:22.763Z,19.48
2022-11-26T03:23:21.568Z,18.52
2022-11-26T03:28:20.359Z,19.00
2022-11-26T03:33:19.260Z,17.52
2022-11-26T03:38:19.503Z,17.58
2022-11-26T03:43:18.256Z,17.77
2022-11-26T03:48:17.077Z,18.10
2022-11-26T03:53:15.791Z,19.25
2022-11-26T03:58:15.889Z,23.63
2022-11-26T04:03:14.718Z,23.17
2022-11-26T04:08:13.751Z,22.00
2022-11-26T04:13:15.114Z,22.80
2022-11-26T04:18:15.289Z,24.38
2022-11-26T04:23:14.100Z,21.90
2022-11-26T04:28:13.482Z,21.85
2022-11-26T04:33:12.564Z,23.13
2022-11-26T04:38:12.810Z,23.23
2022-11-26T04:43:11.676Z,20.85
2022-11-26T04:48:10.549Z,21.80
2022-11-26T04:53:09.285Z,23.00
2022-11-26T04:58:09.456Z,21.75
2022-11-26T05:03:08.447Z,21.58
2022-11-26T05:08:07.915Z,23.05
2022-11-26T05:13:06.719Z,21.20
2022-11-26T05:18:07.060Z,19.85
2022-11-26T05:23:05.950Z,21.95
2022-11-26T05:28:05.041Z,20.90
2022-11-26T05:33:03.892Z,22.42
2022-11-26T05:38:04.181Z,25.48
2022-11-26T05:43:02.971Z,25.65
2022-11-26T05:48:01.776Z,27.20
2022-11-26T05:53:00.800Z,23.27
2022-11-26T05:58:00.984Z,21.15
2022-11-26T06:02:59.820Z,25.55
2022-11-26T06:08:04.233Z,27.85
2022-11-26T06:13:06.845Z,25.80
2022-11-26T06:18:05.773Z,22.45
2022-11-26T06:23:05.417Z,18.15
2022-11-26T06:28:05.798Z,20.45
2022-11-26T06:33:06.254Z,19.60
2022-11-26T06:38:06.686Z,17.00
2022-11-26T06:43:08.587Z,17.92
2022-11-26T06:48:07.645Z,17.25
2022-11-26T06:53:08.463Z,17.92
2022-11-26T06:58:12.053Z,18.05
2022-11-26T07:03:14.311Z,18.83
2022-11-26T07:08:14.131Z,16.55
2022-11-26T07:13:14.360Z,15.48
2022-11-26T07:18:15.758Z,15.60
2022-11-26T07:23:16.393Z,18.15
2022-11-26T07:28:16.766Z,16.27
2022-11-26T07:33:15.741Z,15.35
2022-11-26T07:38:14.514Z,15.07
2022-11-26T07:43:13.371Z,19.27
2022-11-26T07:48:16.914Z,14.77
2022-11-26T07:53:16.061Z,15.52
2022-11-26T07:58:18.719Z,19.10
2022-11-26T08:03:19.204Z,19.80
2022-11-26T08:08:18.084Z,20.15
2022-11-26T08:13:16.967Z,20.35
2022-11-26T08:18:16.002Z,20.50
2022-11-26T08:23:16.360Z,21.08
2022-11-26T08:28:15.359Z,22.85
2022-11-26T08:33:14.597Z,18.67
2022-11-26T08:38:13.456Z,18.42
2022-11-26T08:43:13.790Z,19.00
2022-11-26T08:48:13.602Z,17.63
2022-11-26T08:53:12.488Z,19.23
2022-11-26T08:58:13.482Z,19.38
2022-11-26T09:03:13.772Z,18.30
2022-11-26T09:08:12.706Z,20.63
2022-11-26T09:13:11.518Z,18.30
2022-11-26T09:18:10.292Z,18.60
2022-11-26T09:23:10.925Z,20.73
2022-11-26T09:28:09.998Z,20.63
2022-11-26T09:33:09.169Z,20.67
2022-11-26T09:38:08.104Z,21.67
2022-11-26T09:43:23.428Z,20.20
2022-11-26T09:48:27.510Z,21.63
2022-11-26T09:53:31.536Z,23.48
2022-11-26T09:58:40.645Z,22.77
2022-11-26T10:03:42.456Z,22.83
2022-11-26T10:09:16.120Z,21.30
2022-11-26T10:14:32.939Z,22.83
2022-11-26T10:19:46.455Z,22.88
2022-11-26T10:24:45.708Z,24.77
2022-11-26T10:29:51.037Z,22.88
2022-11-26T10:34:52.338Z,19.38
2022-11-26T10:40:02.035Z,22.15
2022-11-26T10:45:22.897Z,20.23
2022-11-26T10:55:45.274Z,23.17
2022-11-26T11:00:55.248Z,22.70
2022-11-26T11:06:12.722Z,23.27
2022-11-26T11:11:21.463Z,23.48
2022-11-26T11:16:27.682Z,20.42
2022-11-26T11:21:31.346Z,21.10
2022-11-26T11:26:41.334Z,21.58
2022-11-26T11:31:47.946Z,21.60
2022-11-26T11:37:00.146Z,20.13
2022-11-26T11:42:00.391Z,18.75
2022-11-26T11:47:20.697Z,19.13
2022-11-26T11:52:35.563Z,21.25
2022-11-26T11:57:50.407Z,20.30
2022-11-26T12:03:28.214Z,21.13
2022-11-26T12:08:40.978Z,22.10
2022-11-26T12:13:50.139Z,20.07
2022-11-26T12:18:55.282Z,20.23
2022-11-26T12:23:59.821Z,18.55
2022-11-26T12:29:03.345Z,24.38
2022-11-26T12:34:09.420Z,19.13
2022-11-26T12:39:19.176Z,20.27
2022-11-26T12:44:25.123Z,21.70
2022-11-26T12:49:31.823Z,20.33
2022-11-26T12:54:34.884Z,20.90
2022-11-26T12:59:39.809Z,19.80
2022-11-26T13:04:40.003Z,20.65
2022-11-26T13:09:55.436Z,24.52
2022-11-26T13:14:58.050Z,28.73
2022-11-26T13:20:08.714Z,22.67
2022-11-26T13:25:40.608Z,23.33
2022-11-26T13:30:50.991Z,23.10
2022-11-26T13:36:21.346Z,23.05
2022-11-26T13:41:31.296Z,25.33
2022-11-26T13:46:32.376Z,25.92
2022-11-26T13:51:39.660Z,22.58
2022-11-26T13:56:41.355Z,22.80
2022-11-26T14:01:41.393Z,21.48
2022-11-26T14:07:16.213Z,25.63
2022-11-26T14:12:18.763Z,21.77
2022-11-26T14:17:32.503Z,24.33
2022-11-26T14:22:36.334Z,23.92
2022-11-26T14:27:40.721Z,22.17
2022-11-26T14:32:42.248Z,23.88
2022-11-26T14:37:52.427Z,25.52
2022-11-26T14:43:08.215Z,27.90
2022-11-26T14:48:16.586Z,32.28
2022-11-26T14:53:15.838Z,27.48
2022-11-26T14:58:20.501Z,23.58
2022-11-26T15:03:26.021Z,26.17
2022-11-26T15:08:27.173Z,28.13
2022-11-26T15:13:32.918Z,28.75
2022-11-26T15:18:34.330Z,26.70
2022-11-26T15:23:37.585Z,31.27
2022-11-26T15:28:41.201Z,26.13
2022-11-26T15:39:01.273Z,28.85
2022-11-26T15:44:01.975Z,27.08
2022-11-26T15:49:03.877Z,29.63
2022-11-26T15:54:03.532Z,28.00
2022-11-26T15:59:15.117Z,33.85
2022-11-26T16:04:46.331Z,34.38
2022-11-26T16:09:46.423Z,36.22
2022-11-26T16:14:46.605Z,36.10
2022-11-26T16:19:50.319Z,40.33
2022-11-26T16:25:02.693Z,39.53
2022-11-26T16:30:16.390Z,41.90
2022-11-26T16:35:44.133Z,44.70
2022-11-26T16:40:37.000Z,40.50
2022-11-26T16:45:37.553Z,42.45
2022-11-26T16:50:36.279Z,37.63
2022-11-26T16:55:35.088Z,38.70
2022-11-26T17:00:34.827Z,33.58
2022-11-26T17:05:37.171Z,34.97
2022-11-26T17:10:35.977Z,36.17
2022-11-26T17:15:34.965Z,64.70
2022-11-26T17:20:35.224Z,46.70
2022-11-26T17:25:34.286Z,28.88
2022-11-26T17:30:35.251Z,26.42
2022-11-26T17:35:35.858Z,27.95
2022-11-26T17:40:34.655Z,34.30
2022-11-26T17:45:33.473Z,30.42
2022-11-26T17:50:34.006Z,24.58
2022-11-26T17:55:35.638Z,24.38
2022-11-26T18:00:34.448Z,25.80
2022-11-26T18:05:35.785Z,24.55
2022-11-26T18:10:41.146Z,27.10
2022-11-26T18:15:40.007Z,25.33
2022-11-26T18:20:38.873Z,28.15
2022-11-26T18:25:39.163Z,26.13
2022-11-26T18:30:38.432Z,30.80
2022-11-26T18:35:48.308Z,30.60
2022-11-26T18:40:59.332Z,29.75
2022-11-26T18:46:00.451Z,31.38
2022-11-26T18:51:00.154Z,31.80
2022-11-26T18:56:00.394Z,34.08
2022-11-26T19:00:59.399Z,35.17
2022-11-26T19:06:05.453Z,46.63
2022-11-26T19:11:10.618Z,34.47
2022-11-26T19:16:15.819Z,41.15
2022-11-26T19:21:19.840Z,43.13
2022-11-26T19:26:20.467Z,30.35
2022-11-26T19:31:21.454Z,28.95
2022-11-26T19:36:20.827Z,27.67
2022-11-26T19:41:25.395Z,32.83
2022-11-26T19:46:26.605Z,30.52
2022-11-26T19:51:27.890Z,35.17
2022-11-26T19:56:30.570Z,26.55
2022-11-26T20:01:32.002Z,30.73
2022-11-26T20:06:35.383Z,26.50
2022-11-26T20:17:28.694Z,23.58
2022-11-26T20:22:33.965Z,49.30
2022-11-26T20:27:34.433Z,40.33
2022-11-26T20:32:33.213Z,27.15
2022-11-26T20:37:34.803Z,33.95
2022-11-26T20:42:35.405Z,26.52
2022-11-26T20:47:34.507Z,27.80
2022-11-26T20:52:33.750Z,26.73
2022-11-26T20:57:33.730Z,27.90
2022-11-26T21:02:34.405Z,28.45
2022-11-26T21:07:33.356Z,25.67
2022-11-26T21:12:32.223Z,25.98
2022-11-26T21:17:31.129Z,29.15
2022-11-26T21:22:31.585Z,30.33
2022-11-26T21:27:32.117Z,26.95
2022-11-26T21:32:31.068Z,22.70
2022-11-26T21:37:31.225Z,27.98
2022-11-26T21:42:31.063Z,32.13
2022-11-26T21:47:31.566Z,29.48
2022-11-26T21:52:31.838Z,33.50
2022-11-26T21:57:32.221Z,27.92
2022-11-26T22:07:45.646Z,24.08
2022-11-26T22:12:49.432Z,22.30
2022-11-26T22:17:48.299Z,22.17
2022-11-26T22:22:48.554Z,23.38
2022-11-26T22:27:47.444Z,20.25
2022-11-26T22:32:46.392Z,19.02
2022-11-26T22:37:45.154Z,20.85
2022-11-26T22:42:45.333Z,21.98
2022-11-26T22:47:48.528Z,18.38
2022-11-26T22:52:52.322Z,15.75
2022-11-26T22:57:53.477Z,17.33
2022-11-26T23:02:52.576Z,19.58
2022-11-26T23:07:51.503Z,17.58
2022-11-26T23:12:50.379Z,17.20
2022-11-26T23:17:51.133Z,15.98
2022-11-26T23:22:50.110Z,13.52
2022-11-26T23:27:49.235Z,10.98
2022-11-26T23:32:48.233Z,11.77
2022-11-26T23:37:48.612Z,9.45
2022-11-26T23:42:47.517Z,9.10
2022-11-26T23:47:46.359Z,10.15
2022-11-26T23:52:45.147Z,10.27
2022-11-26T23:57:45.537Z,9.35
